Latest Weather Observations for Rhyll

IDV60801

Issued at 7:35 pm EST Friday 22 August 2014 (issued every 30 minutes, with the page automatically refreshed every 10 minutes)

About weather observations | Map of weather stations | Latest weather observations for VIC | Other Formats
Station Details ID: 086373 Name: RHYLL Lat: -38.46 Lon: 145.31 Height: 13.4 m
Data from the previous 72 hours. | See also: Recent months at Rhyll
Date/Time
EST
Temp
°C
App
Temp
°C
Dew
Point
Rel
Hum
%
Delta-T
°C
Wind Press
QNH
hPa
Press
MSL
hPa
Rain
since 9 am
mm
Dir
 
Spd
km/h
Gust
km/h
Spd
kts
Gust
kts
22/07:30pm 12.2 11.5 10.1 87 1.1 SE 4 6 2 3 1028.8 1028.8 0.0
22/07:00pm 12.4 11.4 10.3 87 1.1 SE 6 7 3 4 1028.8 1028.8 0.0
22/06:30pm 11.9 10.6 10.0 88 1.0 SSE 7 11 4 6 1028.6 1028.6 0.0
22/06:00pm 12.7 11.1 10.1 84 1.3 SSE 9 11 5 6 1028.4 1028.4 0.0
22/05:30pm 12.8 11.3 9.1 78 1.9 SSE 7 11 4 6 1028.5 1028.5 0.0
22/05:00pm 14.1 12.7 9.7 75 2.2 SSE 7 9 4 5 1028.3 1028.3 0.0
22/04:30pm 14.7 13.6 10.1 74 2.4 SE 6 7 3 4 1028.1 1028.1 0.0
22/04:00pm 15.0 13.9 10.8 76 2.2 SSE 7 9 4 5 1028.1 1028.1 0.0
22/03:30pm 15.7 15.3 11.1 74 2.5 SE 4 6 2 3 1028.3 1028.3 0.0
22/03:00pm 15.9 14.8 10.0 68 3.1 SE 6 7 3 4 1028.6 1028.6 0.0
22/02:30pm 15.9 14.8 10.0 68 3.1 ESE 6 7 3 4 1028.8 1028.8 0.0
22/02:00pm 15.2 14.7 10.6 74 2.4 ESE 4 6 2 3 1029.1 1029.1 0.0
22/01:30pm 15.9 15.3 10.4 70 2.9 ENE 4 4 2 2 1029.3 1029.3 0.0
22/01:00pm 15.2 15.3 10.2 72 2.6 CALM 0 2 0 1 1029.6 1029.6 0.0
22/12:30pm 14.7 14.3 9.9 73 2.5 E 2 4 1 2 1030.0 1030.0 0.0
22/12:00pm 15.2 14.5 10.0 71 2.7 NE 4 4 2 2 1030.5 1030.5 0.0
22/11:30am 15.0 14.3 10.0 72 2.6 NE 4 4 2 2 1030.8 1030.8 0.0
22/11:00am 14.7 13.9 9.5 71 2.7 NE 4 4 2 2 1031.0 1031.0 0.0
22/10:30am 14.8 14.1 10.2 74 2.4 NE 4 6 2 3 1031.2 1031.2 0.0
22/10:00am 13.8 12.7 9.8 77 2.0 NE 6 7 3 4 1031.3 1031.3 0.0
22/09:30am 13.3 11.7 10.3 82 1.6 ENE 9 11 5 6 1031.4 1031.4 0.0
22/09:00am 12.0 10.1 10.4 90 0.8 ENE 11 13 6 7 1031.4 1031.4 0.0
22/08:30am 10.8 8.4 9.9 94 0.5 NE 13 15 7 8 1031.5 1031.5 0.0
22/08:00am 10.1 7.9 9.5 96 0.3 ENE 11 15 6 8 1031.2 1031.2 0.0
22/07:30am 9.7 8.2 9.2 97 0.2 NE 7 9 4 5 1031.0 1031.0 0.0
22/07:00am 8.7 7.1 8.1 96 0.3 NE 6 9 3 5 1030.7 1030.7 0.0
22/06:30am 8.9 7.4 8.3 96 0.3 NNE 6 7 3 4 1030.4 1030.4 0.0
22/06:00am 8.9 7.4 8.3 96 0.3 NNE 6 7 3 4 1030.3 1030.3 0.0
22/05:30am 9.3 7.9 8.7 96 0.3 N 6 9 3 5 1030.2 1030.2 0.0
22/05:00am 8.5 6.8 7.7 95 0.4 N 6 7 3 4 1030.0 1030.0 0.0
22/04:30am 8.8 7.6 7.9 94 0.4 NNW 4 6 2 3 1029.8 1029.8 0.0
22/04:00am 9.1 7.9 8.0 93 0.5 N 4 7 2 4 1029.7 1029.7 0.0
22/03:30am 9.2 7.6 8.0 92 0.6 NNW 6 7 3 4 1029.6 1029.6 0.0
22/03:00am 9.4 8.2 8.0 91 0.7 NNW 4 7 2 4 1029.5 1029.5 0.0
22/02:30am 10.2 9.1 8.3 88 0.9 N 4 9 2 5 1029.6 1029.6 0.0
22/02:00am 10.5 9.1 8.8 89 0.8 N 6 11 3 6 1029.8 1029.8 0.0
22/01:30am 9.8 8.7 8.4 91 0.7 NNW 4 7 2 4 1029.9 1029.9 0.0
22/01:00am 10.6 6.8 9.2 91 0.7 NE 19 22 10 12 1029.7 1029.7 0.0
22/12:30am 10.7 6.8 9.3 91 0.7 NE 20 24 11 13 1029.7 1029.7 0.0
22/12:00am 10.8 6.5 9.4 91 0.7 NE 22 24 12 13 1029.7 1029.7 0.0
 
Date/Time
EST
Temp
°C
App
Temp
°C
Dew
Point
Rel
Hum
%
Delta-T
°C
Wind Press
QNH
hPa
Press
MSL
hPa
Rain
since 9 am
mm
Dir
 
Spd
km/h
Gust
km/h
Spd
kts
Gust
kts
21/11:30pm 10.7 6.4 9.5 92 0.6 NE 22 26 12 14 1029.7 1029.7 0.0
21/11:00pm 10.6 6.7 9.4 92 0.6 ENE 20 22 11 12 1029.7 1029.7 0.0
21/10:30pm 10.9 6.3 9.5 91 0.7 ENE 24 28 13 15 1029.6 1029.6 0.0
21/10:00pm 10.9 6.6 9.3 90 0.8 ENE 22 28 12 15 1029.7 1029.7 0.0
21/09:30pm 11.0 7.3 9.3 89 0.8 ENE 19 22 10 12 1029.6 1029.6 0.0
21/09:00pm 10.8 8.1 9.1 89 0.8 ENE 13 17 7 9 1029.6 1029.6 0.0
21/08:30pm 11.2 8.5 9.1 87 1.0 E 13 15 7 8 1029.4 1029.4 0.0
21/08:00pm 11.5 9.7 9.4 87 1.0 E 9 13 5 7 1029.4 1029.4 0.0
21/07:30pm 11.3 9.1 9.2 87 1.0 ENE 11 15 6 8 1029.3 1029.3 0.0
21/07:00pm 11.2 9.7 9.3 88 0.9 ENE 7 11 4 6 1028.9 1028.9 0.0
21/06:30pm 11.8 10.8 8.8 82 1.5 ENE 4 7 2 4 1028.6 1028.6 0.0
21/06:00pm 12.7 10.8 9.2 79 1.8 ENE 9 13 5 7 1028.3 1028.3 0.0
21/05:30pm 13.3 12.5 9.5 78 1.9 SE 4 6 2 3 1028.1 1028.1 0.0
21/05:00pm 13.2 12.4 9.6 79 1.8 S 4 6 2 3 1027.8 1027.8 0.0
21/04:30pm 13.5 12.3 9.6 77 2.0 S 6 7 3 4 1027.7 1027.7 0.0
21/04:00pm 14.8 13.8 10.2 74 2.4 S 6 7 3 4 1027.6 1027.6 0.0
21/03:30pm 15.7 14.8 10.7 72 2.7 S 6 7 3 4 1027.6 1027.6 0.0
21/03:00pm 15.2 14.2 10.2 72 2.6 S 6 9 3 5 1027.6 1027.6 0.0
21/02:30pm 15.1 14.6 9.2 68 3.0 SE 2 6 1 3 1027.7 1027.7 0.0
21/02:00pm 15.9 14.3 8.9 63 3.6 E 7 7 4 4 1027.7 1027.7 0.0
21/01:30pm 15.9 14.3 8.9 63 3.6 ENE 7 9 4 5 1028.0 1028.0 0.0
21/01:00pm 15.6 13.9 9.7 68 3.0 E 9 11 5 6 1028.3 1028.3 0.0
21/12:30pm 15.1 14.3 9.7 70 2.8 E 4 6 2 3 1028.7 1028.7 0.0
21/12:00pm 14.4 13.4 9.0 70 2.7 NNE 4 6 2 3 1029.1 1029.1 0.0
21/11:30am 12.9 11.4 6.9 67 2.9 N 4 6 2 3 1029.5 1029.5 0.0
21/11:00am 13.2 11.8 7.4 68 2.8 E 4 4 2 2 1029.8 1029.8 0.0
21/10:30am 12.9 11.5 7.1 68 2.8 NE 4 6 2 3 1029.7 1029.7 0.0
21/10:00am 12.7 11.1 6.3 65 3.0 NE 4 6 2 3 1029.7 1029.7 0.0
21/09:30am 12.4 10.9 6.9 69 2.6 ENE 4 7 2 4 1029.7 1029.7 0.0
21/09:00am 11.5 9.5 7.2 75 2.0 NE 7 9 4 5 1029.8 1029.8 0.0
21/08:30am 9.4 6.9 6.7 83 1.3 ENE 9 13 5 7 1029.7 1029.7 0.0
21/08:00am 8.8 5.1 6.1 83 1.2 ENE 15 19 8 10 1029.5 1029.5 0.0
21/07:30am 8.6 4.0 5.5 81 1.4 E 19 22 10 12 1029.3 1029.3 0.0
21/07:00am 8.5 4.6 5.4 81 1.4 E 15 19 8 10 1028.9 1028.9 0.0
21/06:30am 8.7 4.1 5.4 80 1.5 E 19 22 10 12 1028.7 1028.7 0.0
21/06:00am 8.8 4.7 6.1 83 1.2 E 17 20 9 11 1028.5 1028.5 0.0
21/05:30am 8.2 4.7 5.5 83 1.2 E 13 19 7 10 1028.5 1028.5 0.0
21/05:00am 8.5 3.9 5.8 83 1.2 E 19 22 10 12 1028.4 1028.4 0.0
21/04:30am 8.5 4.3 5.8 83 1.2 ENE 17 20 9 11 1028.3 1028.3 0.0
21/04:00am 8.3 4.1 5.9 85 1.1 E 17 20 9 11 1028.2 1028.2 0.0
21/03:30am 8.4 5.0 6.0 85 1.1 E 13 17 7 9 1028.0 1028.0 0.0
21/03:00am 8.8 5.1 6.4 85 1.1 E 15 19 8 10 1028.0 1028.0 0.0
21/02:30am 8.8 5.2 6.8 87 0.9 E 15 17 8 9 1028.0 1028.0 0.0
21/02:00am 9.1 7.1 7.2 88 0.9 ESE 7 11 4 6 1028.1 1028.1 0.0
21/01:30am 9.4 7.2 8.0 91 0.7 ESE 9 15 5 8 1028.2 1028.2 0.0
21/01:00am 8.5 6.2 7.6 94 0.4 E 9 11 5 6 1028.3 1028.3 0.0
21/12:30am 8.3 5.2 7.4 94 0.4 E 13 15 7 8 1028.4 1028.4 0.0
21/12:00am 7.7 5.6 6.8 94 0.4 E 7 9 4 5 1028.3 1028.3 0.0
 
Date/Time
EST
Temp
°C
App
Temp
°C
Dew
Point
Rel
Hum
%
Delta-T
°C
Wind Press
QNH
hPa
Press
MSL
hPa
Rain
since 9 am
mm
Dir
 
Spd
km/h
Gust
km/h
Spd
kts
Gust
kts
20/11:30pm 7.9 5.5 7.0 94 0.4 ESE 9 13 5 7 1028.4 1028.4 0.0
20/11:00pm 8.3 6.6 7.4 94 0.4 ESE 6 9 3 5 1028.4 1028.4 0.0
20/10:30pm 8.4 7.8 7.3 93 0.5 CALM 0 4 0 2 1028.5 1028.5 0.0
20/10:00pm 7.9 6.4 6.7 92 0.5 E 4 6 2 3 1028.7 1028.7 0.0
20/09:30pm 8.9 7.6 7.7 92 0.6 E 4 6 2 3 1028.7 1028.7 0.0
20/09:00pm 8.1 6.9 6.6 90 0.7 ESE 2 4 1 2 1028.6 1028.6 0.0
20/08:30pm 8.5 7.4 6.8 89 0.8 S 2 4 1 2 1028.5 1028.5 0.0
20/08:00pm 8.4 7.6 6.4 87 0.9 CALM 0 0 0 0 1028.5 1028.5 0.0
20/07:30pm 8.5 7.2 6.1 85 1.1 SSW 2 4 1 2 1028.4 1028.4 0.0
20/07:00pm 9.4 7.7 5.9 79 1.6 SSW 4 6 2 3 1028.3 1028.3 0.0
20/06:30pm 9.3 7.2 5.9 79 1.6 SW 6 6 3 3 1027.9 1027.9 0.0
20/06:00pm 9.5 7.8 5.7 77 1.7 SW 4 6 2 3 1027.7 1027.7 0.0
20/05:30pm 10.4 8.3 6.0 74 2.0 SW 6 7 3 4 1027.4 1027.4 0.0
20/05:00pm 11.5 9.5 6.2 70 2.5 SSW 6 11 3 6 1027.2 1027.2 0.0
20/04:30pm 12.2 10.3 6.5 68 2.7 SSW 6 11 3 6 1027.0 1027.0 0.0
20/04:00pm 13.2 11.3 6.5 64 3.2 S 6 7 3 4 1026.9 1026.9 0.0
20/03:30pm 12.1 10.0 5.7 65 3.0 S 6 9 3 5 1026.7 1026.7 0.0
20/03:00pm 11.7 9.6 5.8 67 2.7 S 6 11 3 6 1026.6 1026.6 0.0
20/02:30pm 12.7 11.3 7.4 70 2.6 S 4 7 2 4 1026.5 1026.5 0.0
20/02:00pm 12.3 12.1 9.0 80 1.6 CALM 0 4 0 2 1026.5 1026.5 0.0
20/01:30pm 12.3 11.4 9.1 81 1.6 ENE 4 6 2 3 1026.6 1026.6 0.0
20/01:00pm 12.3 11.0 9.3 82 1.5 E 6 9 3 5 1026.8 1026.8 0.0
20/12:30pm 11.4 10.4 8.8 84 1.3 N 4 6 2 3 1026.9 1026.9 0.0
20/12:00pm 11.6 10.5 8.6 82 1.5 NNE 4 6 2 3 1027.2 1027.2 0.0
20/11:30am 11.4 10.3 8.6 83 1.4 N 4 6 2 3 1027.4 1027.4 0.0
20/11:00am 11.6 11.0 9.0 84 1.3 NNE 2 4 1 2 1027.5 1027.5 0.0
20/10:30am 11.6 10.6 8.8 83 1.4 NNE 4 7 2 4 1027.5 1027.5 0.0
20/10:00am 11.1 9.6 8.5 84 1.3 N 6 9 3 5 1027.4 1027.4 0.0
20/09:30am 10.3 7.8 8.1 86 1.1 NNE 11 13 6 7 1027.4 1027.4 0.0
20/09:00am 10.9 8.1 8.7 86 1.1 ENE 13 17 7 9 1027.1 1027.1 0.0
20/08:30am 11.0 9.3 8.2 83 1.4 E 7 19 4 10 1026.9 1026.9 0.0
20/08:00am 10.5 9.9 7.6 82 1.4 CALM 0 2 0 1 1026.6 1026.6 0.0
20/07:30am 10.3 8.9 7.4 82 1.4 SW 4 6 2 3 1026.3 1026.3 0.0
20/07:00am 10.3 8.2 6.6 78 1.7 SSW 7 11 4 6 1026.1 1026.1 0.0
20/06:30am 10.2 7.4 6.9 80 1.6 SSW 11 17 6 9 1025.7 1025.7 0.0
20/06:00am 10.4 8.6 8.0 85 1.2 S 7 15 4 8 1025.5 1025.5 0.0
20/05:30am 10.5 8.8 7.6 82 1.4 S 6 11 3 6 1025.4 1025.4 0.0
20/05:00am 10.2 9.2 7.4 83 1.3 SSW 2 7 1 4 1025.5 1025.5 0.0
20/04:30am 10.3 9.2 6.8 79 1.6 SW 2 6 1 3 1025.4 1025.4 0.0
20/04:00am 10.2 9.0 6.5 78 1.7 SE 2 4 1 2 1025.4 1025.4 0.0
20/03:30am 10.4 8.8 6.4 76 1.9 SSE 4 9 2 5 1025.4 1025.4 0.0
20/03:00am 10.3 9.2 5.3 71 2.3 CALM 0 0 0 0 1025.4 1025.4 0.0
20/02:30am 10.5 9.4 4.9 68 2.5 CALM 0 0 0 0 1025.5 1025.5 0.0
20/02:00am 10.1 8.9 4.7 69 2.4 CALM 0 0 0 0 1025.7 1025.7 0.0
20/01:30am 10.3 8.3 4.5 67 2.6 E 4 6 2 3 1025.8 1025.8 0.0
20/01:00am 10.5 8.5 4.4 66 2.7 S 4 9 2 5 1025.8 1025.8 0.0
20/12:30am 10.8 8.4 4.5 65 2.8 S 6 11 3 6 1025.8 1025.8 0.0
20/12:00am 10.8 8.3 4.5 65 2.8 SSW 7 13 4 7 1026.0 1026.0 0.0
 
Date/Time
EST
Temp
°C
App
Temp
°C
Dew
Point
Rel
Hum
%
Delta-T
°C
Wind Press
QNH
hPa
Press
MSL
hPa
Rain
since 9 am
mm
Dir
 
Spd
km/h
Gust
km/h
Spd
kts
Gust
kts
19/11:30pm 10.6 8.3 4.9 68 2.6 S 6 7 3 4 1026.0 1026.0 0.0
19/11:00pm 10.7 8.1 4.4 65 2.8 SE 7 13 4 7 1026.0 1026.0 0.0
19/10:30pm 10.8 7.9 4.7 66 2.8 SE 9 15 5 8 1026.0 1026.0 0.0
19/10:00pm 10.8 8.3 4.5 65 2.8 SSW 7 15 4 8 1026.1 1026.1 0.0
19/09:30pm 10.8 8.5 5.6 70 2.4 SSE 7 11 4 6 1026.0 1026.0 0.0
19/09:00pm 10.8 8.4 5.1 68 2.6 SSE 7 11 4 6 1025.9 1025.9 0.0
19/08:30pm 10.8 7.9 4.9 67 2.7 SSE 9 17 5 9 1025.9 1025.9 0.0
19/08:00pm 10.6 8.3 4.7 67 2.6 S 6 9 3 5 1025.9 1025.9 0.0

Other Formats:

Comma delimited format used in spreadsheet applications
http://www.bom.gov.au/fwo/IDV60801/IDV60801.94892.axf

JavaScript Object Notation format (JSON) in row-major order
http://www.bom.gov.au/fwo/IDV60801/IDV60801.94892.json